Search for airport 
image banner adimage banner ad
image banner ad

FCBB - Brazzaville/Maya-Maya

Located in Brazzaville, Congo

ICAO - FCBB, IATA - BZV

Data provided by Airmate  

General information

Coordinates: S4°15'2" E15°15'5"
Elevation is 1052 feet MSL.
 
Rated:
View ratings: [VIEW]


View others Airports in Pool

Operational data

Open for public use
Current time UTC:
Current local time:
Weather
METAR: FCBB 130000Z 27005KT 240V300 8000 FEW022 22/18 Q1015 NOSIG
TAF: TAF FCBB 122300Z 1300/1406 26004KT 8000 FEW020 PROB30 1304/1308 4000 BR
View NOTAMs / SUP AIP / TFR affecting this airport [VIEW]
Communications frequencies: [VIEW]

Runways:

RWY identifierQFULength (ft)Width (ft)SurfaceLDA (ft)
0550°10827148ASP
23230°10827148

Airport contact information

Address: Brazzaville Congo

Satellite view of FCBB